sensor_id;sensor_type;location;lat;lon;timestamp;pressure;altitude;pressure_sealevel;temperature;humidity
38452;BME280;24231;52.514;13.438;2022-10-13T00:01:55;101734.05;;;10.36;60.65
38452;BME280;24231;52.514;13.438;2022-10-13T00:04:23;101731.55;;;10.03;61.63
38452;BME280;24231;52.514;13.438;2022-10-13T00:06:50;101733.02;;;8.71;63.99
38452;BME280;24231;52.514;13.438;2022-10-13T00:09:17;101726.87;;;9.68;62.59
38452;BME280;24231;52.514;13.438;2022-10-13T00:11:44;101730.41;;;9.55;63.40
38452;BME280;24231;52.514;13.438;2022-10-13T00:14:11;101728.40;;;9.44;64.35
38452;BME280;24231;52.514;13.438;2022-10-13T00:16:39;101730.06;;;9.26;65.00
38452;BME280;24231;52.514;13.438;2022-10-13T00:19:06;101730.36;;;9.39;64.56
38452;BME280;24231;52.514;13.438;2022-10-13T00:21:34;101731.10;;;9.30;65.83
38452;BME280;24231;52.514;13.438;2022-10-13T00:24:01;101726.83;;;9.77;63.02
38452;BME280;24231;52.514;13.438;2022-10-13T00:26:28;101726.31;;;9.18;66.18
38452;BME280;24231;52.514;13.438;2022-10-13T00:28:55;101724.37;;;9.34;65.18
38452;BME280;24231;52.514;13.438;2022-10-13T00:31:25;101723.52;;;9.14;65.83
38452;BME280;24231;52.514;13.438;2022-10-13T00:33:52;101720.22;;;9.13;66.97
38452;BME280;24231;52.514;13.438;2022-10-13T00:36:20;101722.03;;;9.15;66.78
38452;BME280;24231;52.514;13.438;2022-10-13T00:38:47;101721.51;;;9.22;66.68
38452;BME280;24231;52.514;13.438;2022-10-13T00:41:15;101719.38;;;9.10;66.65
38452;BME280;24231;52.514;13.438;2022-10-13T00:43:53;101715.18;;;8.65;68.56
38452;BME280;24231;52.514;13.438;2022-10-13T00:46:22;101716.35;;;9.12;67.22
38452;BME280;24231;52.514;13.438;2022-10-13T00:48:50;101718.35;;;8.97;67.58
38452;BME280;24231;52.514;13.438;2022-10-13T00:51:20;101710.58;;;8.48;69.67
38452;BME280;24231;52.514;13.438;2022-10-13T00:53:48;101712.89;;;9.21;66.63
38452;BME280;24231;52.514;13.438;2022-10-13T00:56:18;101713.02;;;9.43;65.83
38452;BME280;24231;52.514;13.438;2022-10-13T00:58:46;101706.87;;;9.98;63.19
38452;BME280;24231;52.514;13.438;2022-10-13T01:01:14;101713.63;;;9.29;65.25
38452;BME280;24231;52.514;13.438;2022-10-13T01:03:41;101715.47;;;9.20;66.39
38452;BME280;24231;52.514;13.438;2022-10-13T01:06:08;101713.90;;;9.23;65.88
38452;BME280;24231;52.514;13.438;2022-10-13T01:08:35;101712.43;;;9.55;66.04
38452;BME280;24231;52.514;13.438;2022-10-13T01:11:12;101713.42;;;9.56;64.81
38452;BME280;24231;52.514;13.438;2022-10-13T01:13:50;101709.35;;;9.67;64.11
38452;BME280;24231;52.514;13.438;2022-10-13T01:16:27;101713.09;;;9.49;64.77
38452;BME280;24231;52.514;13.438;2022-10-13T01:19:10;101712.66;;;9.50;64.56
38452;BME280;24231;52.514;13.438;2022-10-13T01:21:47;101707.79;;;9.32;65.39
38452;BME280;24231;52.514;13.438;2022-10-13T01:24:32;101706.72;;;8.97;66.32
38452;BME280;24231;52.514;13.438;2022-10-13T01:27:13;101706.29;;;8.92;67.91
38452;BME280;24231;52.514;13.438;2022-10-13T01:30:10;101703.52;;;8.78;67.99
38452;BME280;24231;52.514;13.438;2022-10-13T01:32:48;101700.23;;;8.75;68.07
38452;BME280;24231;52.514;13.438;2022-10-13T01:35:23;101697.20;;;9.12;66.36
38452;BME280;24231;52.514;13.438;2022-10-13T01:37:59;101688.37;;;10.30;61.45
38452;BME280;24231;52.514;13.438;2022-10-13T01:40:38;101687.95;;;10.80;59.36
38452;BME280;24231;52.514;13.438;2022-10-13T01:43:10;101692.85;;;9.46;65.03
38452;BME280;24231;52.514;13.438;2022-10-13T01:45:45;101688.28;;;9.34;65.32
38452;BME280;24231;52.514;13.438;2022-10-13T01:48:15;101684.12;;;9.16;66.73
38452;BME280;24231;52.514;13.438;2022-10-13T01:50:44;101683.95;;;9.30;65.39
38452;BME280;24231;52.514;13.438;2022-10-13T01:56:14;101671.56;;;9.72;64.32
38452;BME280;24231;52.514;13.438;2022-10-13T01:58:47;101673.79;;;9.18;65.52
38452;BME280;24231;52.514;13.438;2022-10-13T02:01:25;101675.39;;;9.25;65.04
38452;BME280;24231;52.514;13.438;2022-10-13T02:04:08;101673.13;;;8.96;66.23
38452;BME280;24231;52.514;13.438;2022-10-13T02:06:41;101667.42;;;9.60;63.81
38452;BME280;24231;52.514;13.438;2022-10-13T02:09:17;101663.38;;;10.40;61.51
38452;BME280;24231;52.514;13.438;2022-10-13T02:11:50;101656.11;;;11.07;58.96
38452;BME280;24231;52.514;13.438;2022-10-13T02:14:23;101658.71;;;8.28;69.97
38452;BME280;24231;52.514;13.438;2022-10-13T02:16:52;101654.71;;;7.49;74.16
38452;BME280;24231;52.514;13.438;2022-10-13T02:19:20;101650.05;;;8.09;72.12
38452;BME280;24231;52.514;13.438;2022-10-13T02:21:49;101651.59;;;8.94;68.38
38452;BME280;24231;52.514;13.438;2022-10-13T02:24:18;101650.26;;;9.64;65.52
38452;BME280;24231;52.514;13.438;2022-10-13T02:26:45;101652.50;;;8.96;66.77
38452;BME280;24231;52.514;13.438;2022-10-13T02:29:14;101641.31;;;10.01;62.79
38452;BME280;24231;52.514;13.438;2022-10-13T02:31:43;101651.98;;;9.15;66.22
38452;BME280;24231;52.514;13.438;2022-10-13T02:34:10;101646.66;;;9.13;65.92
38452;BME280;24231;52.514;13.438;2022-10-13T02:36:38;101646.05;;;9.23;65.79
38452;BME280;24231;52.514;13.438;2022-10-13T02:39:09;101640.84;;;9.03;66.68
38452;BME280;24231;52.514;13.438;2022-10-13T02:41:37;101645.84;;;9.02;66.00
38452;BME280;24231;52.514;13.438;2022-10-13T02:44:05;101638.58;;;8.32;69.64
38452;BME280;24231;52.514;13.438;2022-10-13T02:46:32;101638.21;;;8.91;66.94
38452;BME280;24231;52.514;13.438;2022-10-13T02:48:59;101629.42;;;8.14;71.40
38452;BME280;24231;52.514;13.438;2022-10-13T02:51:27;101635.32;;;9.30;66.53
38452;BME280;24231;52.514;13.438;2022-10-13T02:53:54;101632.09;;;8.56;69.12
38452;BME280;24231;52.514;13.438;2022-10-13T02:56:22;101629.43;;;8.50;68.99
38452;BME280;24231;52.514;13.438;2022-10-13T02:58:49;101617.40;;;8.07;70.41
38452;BME280;24231;52.514;13.438;2022-10-13T03:01:16;101620.27;;;6.58;79.34
38452;BME280;24231;52.514;13.438;2022-10-13T03:03:43;101616.39;;;7.39;75.17
38452;BME280;24231;52.514;13.438;2022-10-13T03:06:11;101616.58;;;8.25;72.04
38452;BME280;24231;52.514;13.438;2022-10-13T03:08:38;101622.75;;;8.06;71.97
38452;BME280;24231;52.514;13.438;2022-10-13T03:11:05;101625.30;;;7.43;75.01
38452;BME280;24231;52.514;13.438;2022-10-13T03:13:32;101613.96;;;9.70;66.17
38452;BME280;24231;52.514;13.438;2022-10-13T03:15:59;101619.58;;;7.77;73.51
38452;BME280;24231;52.514;13.438;2022-10-13T03:18:26;101620.59;;;8.30;70.93
38452;BME280;24231;52.514;13.438;2022-10-13T03:20:55;101615.79;;;8.21;70.55
38452;BME280;24231;52.514;13.438;2022-10-13T03:23:23;101618.53;;;9.02;67.34
38452;BME280;24231;52.514;13.438;2022-10-13T03:25:51;101615.42;;;8.57;68.61
38452;BME280;24231;52.514;13.438;2022-10-13T03:28:19;101613.16;;;8.01;71.42
38452;BME280;24231;52.514;13.438;2022-10-13T03:30:47;101612.12;;;8.91;68.76
38452;BME280;24231;52.514;13.438;2022-10-13T03:33:14;101607.31;;;8.34;70.42
38452;BME280;24231;52.514;13.438;2022-10-13T03:35:41;101606.35;;;8.14;71.07
38452;BME280;24231;52.514;13.438;2022-10-13T03:38:09;101609.86;;;8.02;71.71
38452;BME280;24231;52.514;13.438;2022-10-13T03:40:36;101607.95;;;8.59;69.66
38452;BME280;24231;52.514;13.438;2022-10-13T03:43:04;101607.94;;;8.71;68.54
38452;BME280;24231;52.514;13.438;2022-10-13T03:45:31;101608.70;;;8.58;68.54
38452;BME280;24231;52.514;13.438;2022-10-13T03:47:58;101606.56;;;8.54;69.11
38452;BME280;24231;52.514;13.438;2022-10-13T03:50:25;101596.39;;;7.84;73.27
38452;BME280;24231;52.514;13.438;2022-10-13T03:52:52;101592.97;;;7.60;73.97
38452;BME280;24231;52.514;13.438;2022-10-13T03:55:19;101590.63;;;7.39;75.46
38452;BME280;24231;52.514;13.438;2022-10-13T03:57:46;101590.61;;;7.96;72.04
38452;BME280;24231;52.514;13.438;2022-10-13T04:00:14;101591.79;;;7.84;72.79
38452;BME280;24231;52.514;13.438;2022-10-13T04:02:41;101591.41;;;8.03;71.51
38452;BME280;24231;52.514;13.438;2022-10-13T04:05:08;101590.78;;;8.21;70.87
38452;BME280;24231;52.514;13.438;2022-10-13T04:07:37;101589.49;;;7.97;71.52
38452;BME280;24231;52.514;13.438;2022-10-13T04:10:05;101591.13;;;8.74;69.96
38452;BME280;24231;52.514;13.438;2022-10-13T04:12:32;101589.95;;;7.95;72.10
38452;BME280;24231;52.514;13.438;2022-10-13T04:14:59;101591.39;;;8.26;70.47
38452;BME280;24231;52.514;13.438;2022-10-13T04:17:26;101588.04;;;7.84;71.97
38452;BME280;24231;52.514;13.438;2022-10-13T04:19:53;101588.95;;;8.17;71.05
38452;BME280;24231;52.514;13.438;2022-10-13T04:22:21;101578.26;;;9.29;66.23
38452;BME280;24231;52.514;13.438;2022-10-13T04:24:48;101578.54;;;8.34;70.78
38452;BME280;24231;52.514;13.438;2022-10-13T04:27:15;101584.19;;;8.23;71.10
38452;BME280;24231;52.514;13.438;2022-10-13T04:29:42;101586.09;;;7.32;74.80
38452;BME280;24231;52.514;13.438;2022-10-13T04:32:09;101580.13;;;7.90;73.88
38452;BME280;24231;52.514;13.438;2022-10-13T04:34:36;101582.87;;;7.59;74.26
38452;BME280;24231;52.514;13.438;2022-10-13T04:37:04;101585.64;;;7.78;74.09
38452;BME280;24231;52.514;13.438;2022-10-13T04:39:31;101583.51;;;7.96;72.94
38452;BME280;24231;52.514;13.438;2022-10-13T04:41:58;101582.70;;;8.79;69.79
38452;BME280;24231;52.514;13.438;2022-10-13T04:44:25;101571.06;;;9.79;65.07
38452;BME280;24231;52.514;13.438;2022-10-13T04:46:53;101570.48;;;9.19;66.69
38452;BME280;24231;52.514;13.438;2022-10-13T04:49:20;101565.15;;;9.73;64.80
38452;BME280;24231;52.514;13.438;2022-10-13T04:51:48;101561.21;;;9.59;65.22
38452;BME280;24231;52.514;13.438;2022-10-13T04:54:15;101568.64;;;8.93;67.06
38452;BME280;24231;52.514;13.438;2022-10-13T04:56:43;101570.55;;;8.74;68.06
38452;BME280;24231;52.514;13.438;2022-10-13T04:59:10;101569.32;;;8.91;67.93
38452;BME280;24231;52.514;13.438;2022-10-13T05:01:38;101555.37;;;9.53;65.56
38452;BME280;24231;52.514;13.438;2022-10-13T05:04:05;101563.81;;;8.41;68.85
38452;BME280;24231;52.514;13.438;2022-10-13T05:06:35;101562.81;;;8.01;71.88
38452;BME280;24231;52.514;13.438;2022-10-13T05:09:03;101552.69;;;8.88;67.55
38452;BME280;24231;52.514;13.438;2022-10-13T05:11:31;101555.46;;;9.26;67.15
38452;BME280;24231;52.514;13.438;2022-10-13T05:14:00;101553.95;;;9.26;67.51
38452;BME280;24231;52.514;13.438;2022-10-13T05:16:27;101561.79;;;8.24;70.52
38452;BME280;24231;52.514;13.438;2022-10-13T05:18:54;101558.00;;;7.82;72.88
38452;BME280;24231;52.514;13.438;2022-10-13T05:21:23;101553.99;;;7.98;71.63
38452;BME280;24231;52.514;13.438;2022-10-13T05:23:51;101554.66;;;8.18;72.04
38452;BME280;24231;52.514;13.438;2022-10-13T05:26:18;101553.96;;;8.36;71.80
38452;BME280;24231;52.514;13.438;2022-10-13T05:28:46;101553.10;;;8.09;72.35
38452;BME280;24231;52.514;13.438;2022-10-13T05:31:15;101548.97;;;7.97;73.22
38452;BME280;24231;52.514;13.438;2022-10-13T05:33:43;101544.63;;;7.56;75.15
38452;BME280;24231;52.514;13.438;2022-10-13T05:36:15;101549.30;;;8.00;73.82
38452;BME280;24231;52.514;13.438;2022-10-13T05:38:42;101551.04;;;8.09;73.88
38452;BME280;24231;52.514;13.438;2022-10-13T05:41:12;101547.39;;;7.92;74.25
38452;BME280;24231;52.514;13.438;2022-10-13T05:43:40;101543.43;;;8.21;72.78
38452;BME280;24231;52.514;13.438;2022-10-13T05:46:08;101541.87;;;8.35;72.08
38452;BME280;24231;52.514;13.438;2022-10-13T05:48:35;101540.34;;;8.43;72.35
38452;BME280;24231;52.514;13.438;2022-10-13T05:51:05;101544.58;;;7.80;74.06
38452;BME280;24231;52.514;13.438;2022-10-13T05:53:36;101543.10;;;7.98;74.49
38452;BME280;24231;52.514;13.438;2022-10-13T05:56:07;101542.39;;;7.95;74.31
38452;BME280;24231;52.514;13.438;2022-10-13T05:58:38;101542.15;;;7.84;75.19
38452;BME280;24231;52.514;13.438;2022-10-13T06:01:07;101546.73;;;8.17;73.49
38452;BME280;24231;52.514;13.438;2022-10-13T06:03:38;101545.22;;;8.35;72.90
38452;BME280;24231;52.514;13.438;2022-10-13T06:06:07;101545.54;;;8.67;71.76
38452;BME280;24231;52.514;13.438;2022-10-13T06:08:35;101548.82;;;8.24;73.17
38452;BME280;24231;52.514;13.438;2022-10-13T06:11:03;101547.23;;;8.44;72.18
38452;BME280;24231;52.514;13.438;2022-10-13T06:13:31;101546.43;;;7.93;74.29
38452;BME280;24231;52.514;13.438;2022-10-13T06:15:58;101543.24;;;7.70;75.99
38452;BME280;24231;52.514;13.438;2022-10-13T06:18:25;101545.74;;;7.90;75.40
38452;BME280;24231;52.514;13.438;2022-10-13T06:20:52;101543.56;;;8.31;72.80
38452;BME280;24231;52.514;13.438;2022-10-13T06:23:19;101546.37;;;8.34;73.57
38452;BME280;24231;52.514;13.438;2022-10-13T06:25:47;101546.90;;;8.33;73.72
38452;BME280;24231;52.514;13.438;2022-10-13T06:28:15;101542.95;;;8.09;74.35
38452;BME280;24231;52.514;13.438;2022-10-13T06:30:43;101541.02;;;8.14;73.76
38452;BME280;24231;52.514;13.438;2022-10-13T06:33:10;101541.68;;;7.93;74.63
38452;BME280;24231;52.514;13.438;2022-10-13T06:35:37;101544.58;;;8.84;71.49
38452;BME280;24231;52.514;13.438;2022-10-13T06:38:05;101550.23;;;7.98;74.65
38452;BME280;24231;52.514;13.438;2022-10-13T06:40:32;101547.04;;;8.28;73.20
38452;BME280;24231;52.514;13.438;2022-10-13T06:42:58;101552.46;;;8.50;72.16
38452;BME280;24231;52.514;13.438;2022-10-13T06:45:26;101553.34;;;8.77;71.54
38452;BME280;24231;52.514;13.438;2022-10-13T06:47:53;101554.95;;;8.27;73.10
38452;BME280;24231;52.514;13.438;2022-10-13T06:50:21;101550.51;;;8.70;71.17
38452;BME280;24231;52.514;13.438;2022-10-13T06:52:49;101543.94;;;9.42;69.83
38452;BME280;24231;52.514;13.438;2022-10-13T06:55:16;101545.97;;;9.61;67.91
38452;BME280;24231;52.514;13.438;2022-10-13T06:57:43;101543.90;;;9.77;66.28
38452;BME280;24231;52.514;13.438;2022-10-13T07:00:10;101546.31;;;9.07;68.89
38452;BME280;24231;52.514;13.438;2022-10-13T07:02:39;101542.09;;;9.53;68.17
38452;BME280;24231;52.514;13.438;2022-10-13T07:05:07;101537.54;;;9.94;66.75
38452;BME280;24231;52.514;13.438;2022-10-13T07:07:34;101536.64;;;9.87;66.65
38452;BME280;24231;52.514;13.438;2022-10-13T07:10:01;101537.77;;;10.71;64.24
38452;BME280;24231;52.514;13.438;2022-10-13T07:12:28;101536.87;;;9.75;67.21
38452;BME280;24231;52.514;13.438;2022-10-13T07:14:55;101532.75;;;10.00;66.00
38452;BME280;24231;52.514;13.438;2022-10-13T07:17:22;101527.50;;;9.37;67.60
38452;BME280;24231;52.514;13.438;2022-10-13T07:19:50;101530.32;;;10.12;66.07
38452;BME280;24231;52.514;13.438;2022-10-13T07:22:17;101529.97;;;10.40;65.15
38452;BME280;24231;52.514;13.438;2022-10-13T07:24:44;101525.84;;;10.09;66.55
38452;BME280;24231;52.514;13.438;2022-10-13T07:27:11;101528.03;;;9.94;67.27
38452;BME280;24231;52.514;13.438;2022-10-13T07:29:38;101523.41;;;10.57;64.70
38452;BME280;24231;52.514;13.438;2022-10-13T07:32:05;101519.37;;;10.19;65.45
38452;BME280;24231;52.514;13.438;2022-10-13T07:34:33;101518.89;;;10.09;67.24
38452;BME280;24231;52.514;13.438;2022-10-13T07:37:00;101521.32;;;10.07;67.67
38452;BME280;24231;52.514;13.438;2022-10-13T07:39:27;101518.95;;;11.03;64.74
38452;BME280;24231;52.514;13.438;2022-10-13T07:41:54;101516.64;;;11.03;64.16
38452;BME280;24231;52.514;13.438;2022-10-13T07:44:22;101510.77;;;11.08;63.42
38452;BME280;24231;52.514;13.438;2022-10-13T07:46:49;101510.08;;;11.55;62.05
38452;BME280;24231;52.514;13.438;2022-10-13T07:49:17;101509.70;;;11.02;64.18
38452;BME280;24231;52.514;13.438;2022-10-13T07:51:43;101511.84;;;11.54;62.20
38452;BME280;24231;52.514;13.438;2022-10-13T07:54:11;101503.16;;;13.38;56.18
38452;BME280;24231;52.514;13.438;2022-10-13T07:56:38;101498.99;;;13.75;54.68
38452;BME280;24231;52.514;13.438;2022-10-13T07:59:05;101498.89;;;13.50;55.27
38452;BME280;24231;52.514;13.438;2022-10-13T08:01:33;101507.50;;;12.30;59.37
38452;BME280;24231;52.514;13.438;2022-10-13T08:04:00;101498.51;;;13.08;57.33
38452;BME280;24231;52.514;13.438;2022-10-13T08:06:27;101493.54;;;13.96;53.89
38452;BME280;24231;52.514;13.438;2022-10-13T08:08:55;101496.66;;;13.93;54.08
38452;BME280;24231;52.514;13.438;2022-10-13T08:11:22;101493.42;;;14.95;51.41
38452;BME280;24231;52.514;13.438;2022-10-13T08:13:50;101489.15;;;15.13;50.73
38452;BME280;24231;52.514;13.438;2022-10-13T08:16:18;101490.49;;;14.53;53.13
38452;BME280;24231;52.514;13.438;2022-10-13T08:18:46;101490.21;;;14.30;53.75
38452;BME280;24231;52.514;13.438;2022-10-13T08:21:14;101485.81;;;15.94;49.16
38452;BME280;24231;52.514;13.438;2022-10-13T08:23:42;101488.54;;;14.58;52.29
38452;BME280;24231;52.514;13.438;2022-10-13T08:26:14;101482.13;;;15.36;50.15
38452;BME280;24231;52.514;13.438;2022-10-13T08:28:42;101481.47;;;16.20;48.14
38452;BME280;24231;52.514;13.438;2022-10-13T08:31:09;101480.50;;;15.47;49.98
38452;BME280;24231;52.514;13.438;2022-10-13T08:33:37;101476.91;;;16.17;48.25
38452;BME280;24231;52.514;13.438;2022-10-13T08:36:04;101473.47;;;15.27;50.56
38452;BME280;24231;52.514;13.438;2022-10-13T08:38:32;101471.15;;;15.01;51.16
38452;BME280;24231;52.514;13.438;2022-10-13T08:40:59;101471.92;;;15.83;49.80
38452;BME280;24231;52.514;13.438;2022-10-13T08:43:26;101472.24;;;16.00;49.88
38452;BME280;24231;52.514;13.438;2022-10-13T08:45:58;101469.41;;;15.29;51.53
38452;BME280;24231;52.514;13.438;2022-10-13T08:48:29;101471.90;;;15.51;50.96
38452;BME280;24231;52.514;13.438;2022-10-13T08:51:00;101468.56;;;15.21;51.23
38452;BME280;24231;52.514;13.438;2022-10-13T08:53:32;101464.10;;;14.96;51.90
38452;BME280;24231;52.514;13.438;2022-10-13T08:56:06;101462.93;;;16.50;48.19
38452;BME280;24231;52.514;13.438;2022-10-13T08:58:37;101461.98;;;17.39;45.96
38452;BME280;24231;52.514;13.438;2022-10-13T09:01:12;101458.40;;;17.31;46.78
38452;BME280;24231;52.514;13.438;2022-10-13T09:03:48;101454.76;;;16.92;47.57
38452;BME280;24231;52.514;13.438;2022-10-13T09:06:19;101451.27;;;16.42;49.01
38452;BME280;24231;52.514;13.438;2022-10-13T09:08:50;101447.99;;;17.16;47.05
38452;BME280;24231;52.514;13.438;2022-10-13T09:11:19;101452.55;;;15.13;51.61
38452;BME280;24231;52.514;13.438;2022-10-13T09:13:46;101452.82;;;14.68;53.66
38452;BME280;24231;52.514;13.438;2022-10-13T09:16:14;101449.61;;;14.85;53.68
38452;BME280;24231;52.514;13.438;2022-10-13T09:18:41;101446.00;;;15.19;52.78
38452;BME280;24231;52.514;13.438;2022-10-13T09:21:18;101448.33;;;16.10;50.21
38452;BME280;24231;52.514;13.438;2022-10-13T09:23:48;101445.59;;;15.38;52.00
38452;BME280;24231;52.514;13.438;2022-10-13T09:26:20;101446.37;;;15.04;53.64
38452;BME280;24231;52.514;13.438;2022-10-13T09:28:48;101446.13;;;15.30;53.16
38452;BME280;24231;52.514;13.438;2022-10-13T09:31:19;101444.90;;;15.11;53.81
38452;BME280;24231;52.514;13.438;2022-10-13T09:33:58;101446.69;;;15.84;51.81
38452;BME280;24231;52.514;13.438;2022-10-13T09:36:25;101448.38;;;14.77;55.17
38452;BME280;24231;52.514;13.438;2022-10-13T09:39:12;101450.94;;;14.32;56.97
38452;BME280;24231;52.514;13.438;2022-10-13T09:41:41;101451.73;;;15.05;55.20
38452;BME280;24231;52.514;13.438;2022-10-13T09:44:12;101449.46;;;15.33;54.49
38452;BME280;24231;52.514;13.438;2022-10-13T09:46:48;101449.45;;;14.07;59.35
38452;BME280;24231;52.514;13.438;2022-10-13T09:49:59;101447.75;;;14.94;56.02
38452;BME280;24231;52.514;13.438;2022-10-13T09:52:27;101444.48;;;16.64;51.42
38452;BME280;24231;52.514;13.438;2022-10-13T09:54:57;101452.25;;;13.90;59.71
38452;BME280;24231;52.514;13.438;2022-10-13T09:57:30;101450.64;;;13.93;59.59
38452;BME280;24231;52.514;13.438;2022-10-13T10:00:06;101448.26;;;14.26;59.19
38452;BME280;24231;52.514;13.438;2022-10-13T10:02:43;101449.66;;;15.67;54.76
38452;BME280;24231;52.514;13.438;2022-10-13T10:05:20;101445.13;;;17.42;49.86
38452;BME280;24231;52.514;13.438;2022-10-13T10:07:50;101448.84;;;15.22;56.17
38452;BME280;24231;52.514;13.438;2022-10-13T10:10:26;101444.85;;;17.37;49.86
38452;BME280;24231;52.514;13.438;2022-10-13T10:12:56;101447.83;;;15.77;54.69
38452;BME280;24231;52.514;13.438;2022-10-13T10:15:27;101447.48;;;15.78;54.33
38452;BME280;24231;52.514;13.438;2022-10-13T10:18:01;101447.66;;;15.74;55.32
38452;BME280;24231;52.514;13.438;2022-10-13T10:20:40;101448.76;;;15.96;54.96
38452;BME280;24231;52.514;13.438;2022-10-13T10:23:15;101444.23;;;15.76;56.25
38452;BME280;24231;52.514;13.438;2022-10-13T10:25:47;101437.91;;;16.18;54.87
38452;BME280;24231;52.514;13.438;2022-10-13T10:28:45;101428.90;;;16.10;55.22
38452;BME280;24231;52.514;13.438;2022-10-13T10:31:24;101422.68;;;17.49;50.89
38452;BME280;24231;52.514;13.438;2022-10-13T10:34:02;101419.12;;;16.64;53.27
38452;BME280;24231;52.514;13.438;2022-10-13T10:36:39;101416.50;;;17.18;52.68
38452;BME280;24231;52.514;13.438;2022-10-13T10:39:15;101420.29;;;15.85;56.14
38452;BME280;24231;52.514;13.438;2022-10-13T10:41:52;101420.18;;;15.56;57.79
38452;BME280;24231;52.514;13.438;2022-10-13T10:44:27;101411.48;;;16.74;53.47
38452;BME280;24231;52.514;13.438;2022-10-13T10:47:00;101412.70;;;16.29;55.44
38452;BME280;24231;52.514;13.438;2022-10-13T10:49:30;101404.58;;;17.53;51.79
38452;BME280;24231;52.514;13.438;2022-10-13T10:51:59;101398.48;;;17.58;51.86
38452;BME280;24231;52.514;13.438;2022-10-13T10:54:34;101397.04;;;17.27;52.71
38452;BME280;24231;52.514;13.438;2022-10-13T10:57:10;101393.13;;;16.56;54.06
38452;BME280;24231;52.514;13.438;2022-10-13T10:59:48;101394.12;;;15.76;56.96
38452;BME280;24231;52.514;13.438;2022-10-13T11:02:36;101387.85;;;17.03;53.18
38452;BME280;24231;52.514;13.438;2022-10-13T11:05:08;101389.73;;;15.89;56.75
38452;BME280;24231;52.514;13.438;2022-10-13T11:08:25;101383.25;;;15.99;56.41
38452;BME280;24231;52.514;13.438;2022-10-13T11:11:29;101384.31;;;15.45;59.56
38452;BME280;24231;52.514;13.438;2022-10-13T11:13:58;101371.35;;;15.89;58.12
38452;BME280;24231;52.514;13.438;2022-10-13T11:16:29;101364.35;;;16.27;56.17
38452;BME280;24231;52.514;13.438;2022-10-13T11:19:00;101371.08;;;15.52;58.93
38452;BME280;24231;52.514;13.438;2022-10-13T11:22:10;101364.75;;;15.96;57.96
38452;BME280;24231;52.514;13.438;2022-10-13T11:24:51;101369.69;;;17.57;52.83
38452;BME280;24231;52.514;13.438;2022-10-13T11:27:25;101368.41;;;17.43;53.18
38452;BME280;24231;52.514;13.438;2022-10-13T11:29:56;101361.94;;;16.82;55.18
38452;BME280;24231;52.514;13.438;2022-10-13T11:32:55;101363.09;;;17.56;52.74
38452;BME280;24231;52.514;13.438;2022-10-13T11:35:25;101363.68;;;17.93;51.17
38452;BME280;24231;52.514;13.438;2022-10-13T11:38:02;101365.11;;;16.73;55.09
38452;BME280;24231;52.514;13.438;2022-10-13T11:40:40;101362.90;;;17.12;54.16
38452;BME280;24231;52.514;13.438;2022-10-13T11:43:24;101354.92;;;16.17;56.94
38452;BME280;24231;52.514;13.438;2022-10-13T11:46:12;101351.05;;;16.28;56.47
38452;BME280;24231;52.514;13.438;2022-10-13T11:48:59;101350.18;;;16.84;54.96
38452;BME280;24231;52.514;13.438;2022-10-13T11:51:41;101350.70;;;15.79;58.68
38452;BME280;24231;52.514;13.438;2022-10-13T11:54:20;101339.95;;;16.47;56.40
38452;BME280;24231;52.514;13.438;2022-10-13T11:56:51;101331.97;;;16.68;55.17
38452;BME280;24231;52.514;13.438;2022-10-13T11:59:22;101324.53;;;16.41;55.95
38452;BME280;24231;52.514;13.438;2022-10-13T12:01:54;101319.39;;;17.87;52.29
38452;BME280;24231;52.514;13.438;2022-10-13T12:04:24;101319.42;;;17.47;52.05
38452;BME280;24231;52.514;13.438;2022-10-13T12:06:55;101316.02;;;18.79;49.44
38452;BME280;24231;52.514;13.438;2022-10-13T12:09:24;101311.08;;;17.41;52.44
38452;BME280;24231;52.514;13.438;2022-10-13T12:12:01;101297.21;;;18.08;51.60
38452;BME280;24231;52.514;13.438;2022-10-13T12:14:31;101301.17;;;16.22;56.26
38452;BME280;24231;52.514;13.438;2022-10-13T12:17:01;101303.05;;;16.36;55.13
38452;BME280;24231;52.514;13.438;2022-10-13T12:19:30;101298.62;;;16.36;54.38
38452;BME280;24231;52.514;13.438;2022-10-13T12:21:59;101303.93;;;17.06;52.68
38452;BME280;24231;52.514;13.438;2022-10-13T12:24:28;101304.34;;;18.42;48.97
38452;BME280;24231;52.514;13.438;2022-10-13T12:26:57;101306.31;;;17.89;50.05
38452;BME280;24231;52.514;13.438;2022-10-13T12:29:25;101310.17;;;17.52;51.48
38452;BME280;24231;52.514;13.438;2022-10-13T12:31:53;101312.07;;;17.09;52.27
38452;BME280;24231;52.514;13.438;2022-10-13T12:34:24;101311.38;;;16.48;54.27
38452;BME280;24231;52.514;13.438;2022-10-13T12:36:55;101306.70;;;17.29;52.00
38452;BME280;24231;52.514;13.438;2022-10-13T12:39:23;101300.59;;;18.09;49.60
38452;BME280;24231;52.514;13.438;2022-10-13T12:41:52;101305.22;;;18.42;49.04
38452;BME280;24231;52.514;13.438;2022-10-13T12:44:23;101302.03;;;17.14;51.70
38452;BME280;24231;52.514;13.438;2022-10-13T12:46:53;101307.50;;;18.65;47.91
38452;BME280;24231;52.514;13.438;2022-10-13T12:49:23;101304.35;;;17.42;50.03
38452;BME280;24231;52.514;13.438;2022-10-13T12:51:52;101300.10;;;18.08;47.43
38452;BME280;24231;52.514;13.438;2022-10-13T12:54:25;101304.43;;;17.02;49.73
38452;BME280;24231;52.514;13.438;2022-10-13T12:56:56;101306.53;;;17.32;48.94
38452;BME280;24231;52.514;13.438;2022-10-13T12:59:25;101303.96;;;17.49;47.89
38452;BME280;24231;52.514;13.438;2022-10-13T13:01:58;101309.48;;;16.94;49.15
38452;BME280;24231;52.514;13.438;2022-10-13T13:04:42;101303.78;;;17.15;48.63
38452;BME280;24231;52.514;13.438;2022-10-13T13:07:52;101302.18;;;16.36;51.02